Main page
METAR-TAF:

METAR-TAF

Airports :

Zaragoza Airport

Zaragoza, Spain

latitude: 41-40N, longitude: 001-01W, elevation: 263 m

Current weather observation

The report was made 22 minutes ago, at 04:00 UTC
Wind 1 kt from variable directions
Temperature 12°C
Humidity 88%
Pressure 1018 hPa
Visibility 10 km or more
Few clouds at a height of 7000 ft

METAR: LEZG 170400Z VRB01KT 9999 FEW070 12/10 Q1018

Time: 06:22 (04:22 UTC)

Forecast

The report was made 5 hours and 22 minutes ago, at 23:00 UTC
Forecast valid from 17 at 00 UTC to 17 at 24 UTC
Wind 7 kt from the West
Visibility 10 km or more
Few clouds at a height of 4000 ft
Becoming
from 17 at 13 UTC to 17 at 15 UTC
Wind 6 kt from the East

TAF: LEZG 162300Z 1700/1724 28007KT 9999 FEW040 TX23/1713Z TN12/1706Z BECMG 1713/1715 10006KT

Weather observations and forecasts of more than 4000 airports (METAR and TAF reports).

The available stations are represented by yellow and red dots on the map.

Hover mouse over dot to see the name of the station.

Then click to see weather observations and forecasts.

To change the map : click on the green buttons with a black cross to zoom in, on the green button with a dash to zoom out, or on the green arrows for adjacent maps.


METAR-TAF: